createdAt,value
2017-10-25T00:00:52.442Z,17.18
2017-10-25T00:02:01.320Z,17.1
2017-10-25T00:03:09.864Z,17.13
2017-10-25T00:04:18.749Z,17.09
2017-10-25T00:05:27.974Z,17.1
2017-10-25T00:06:36.527Z,17.13
2017-10-25T00:07:45.409Z,17.12
2017-10-25T00:08:53.958Z,17.09
2017-10-25T00:10:02.495Z,17.17
2017-10-25T00:11:11.038Z,17.1
2017-10-25T00:12:19.583Z,17.1
2017-10-25T00:13:28.465Z,17.12
2017-10-25T00:14:37.011Z,17.12
2017-10-25T00:15:45.554Z,17.12
2017-10-25T00:16:54.440Z,17.13
2017-10-25T00:18:02.979Z,17.09
2017-10-25T00:19:11.522Z,17.12
2017-10-25T00:20:20.743Z,17.15
2017-10-25T00:21:29.288Z,17.15
2017-10-25T00:22:38.173Z,17.13
2017-10-25T00:23:47.057Z,17.12
2017-10-25T00:24:56.269Z,17.12
2017-10-25T00:26:04.815Z,17.12
2017-10-25T00:27:13.360Z,17.15
2017-10-25T00:28:21.905Z,17.12
2017-10-25T00:29:30.448Z,17.12
2017-10-25T00:30:39.330Z,17.1
2017-10-25T00:31:48.206Z,17.1
2017-10-25T00:32:56.751Z,17.12
2017-10-25T00:34:05.630Z,17.09
2017-10-25T00:35:14.174Z,17.12
2017-10-25T00:36:23.388Z,17.18
2017-10-25T00:37:32.276Z,17.07
2017-10-25T00:38:40.820Z,17.18
2017-10-25T00:39:50.031Z,17.09
2017-10-25T00:40:58.574Z,17.1
2017-10-25T00:42:07.460Z,17.12
2017-10-25T00:43:16.671Z,17.1
2017-10-25T00:44:25.215Z,17.12
2017-10-25T00:45:33.762Z,17.17
2017-10-25T00:46:42.643Z,17.12
2017-10-25T00:47:51.866Z,17.13
2017-10-25T00:49:00.751Z,17.12
2017-10-25T00:50:10.165Z,17.09
2017-10-25T00:51:18.708Z,17.09
2017-10-25T00:52:27.253Z,17.09
2017-10-25T00:53:36.476Z,17.12
2017-10-25T00:54:45.025Z,17.13
2017-10-25T00:55:53.902Z,17.09
2017-10-25T00:57:03.122Z,17.12
2017-10-25T00:58:12.345Z,17.06
2017-10-25T00:59:20.888Z,17.09
2017-10-25T01:00:29.434Z,17.09
2017-10-25T01:01:37.977Z,17.17
2017-10-25T01:02:46.852Z,17.09
2017-10-25T01:03:55.730Z,17.17
2017-10-25T01:05:04.621Z,17.17
2017-10-25T01:06:13.166Z,17.13
2017-10-25T01:07:21.711Z,17.18
2017-10-25T01:08:30.596Z,17.12
2017-10-25T01:09:39.473Z,17.12
2017-10-25T01:10:48.347Z,17.12
2017-10-25T01:11:57.565Z,17.09
2017-10-25T01:13:06.444Z,17.12
2017-10-25T01:14:14.988Z,17.17
2017-10-25T01:15:23.873Z,17.1
2017-10-25T01:16:32.749Z,17.07
2017-10-25T01:17:41.296Z,17.17
2017-10-25T01:18:50.847Z,17.15
2017-10-25T01:19:59.390Z,17.09
2017-10-25T01:21:08.610Z,17.18
2017-10-25T01:22:17.488Z,17.13
2017-10-25T01:23:26.033Z,17.17
2017-10-25T01:24:34.575Z,17.18
2017-10-25T01:25:44.133Z,17.18
2017-10-25T01:26:53.009Z,17.13
2017-10-25T01:28:01.897Z,17.15
2017-10-25T01:29:10.790Z,17.1
2017-10-25T01:30:19.675Z,17.15
2017-10-25T01:31:28.220Z,17.13
2017-10-25T01:32:36.776Z,17.07
2017-10-25T01:33:45.995Z,17.12
2017-10-25T01:34:54.874Z,17.17
2017-10-25T01:36:03.756Z,17.1
2017-10-25T01:37:12.972Z,17.15
2017-10-25T01:38:21.516Z,17.1
2017-10-25T01:39:30.068Z,17.17
2017-10-25T01:40:38.605Z,17.12
2017-10-25T01:41:47.148Z,17.07
2017-10-25T01:42:56.028Z,17.12
2017-10-25T01:44:04.908Z,17.1
2017-10-25T01:45:13.452Z,17.1
2017-10-25T01:46:21.996Z,17.12
2017-10-25T01:47:30.884Z,17.1
2017-10-25T01:48:39.765Z,17.15
2017-10-25T01:49:48.729Z,17.1
2017-10-25T01:50:57.274Z,17.09
2017-10-25T01:52:06.157Z,17.07
2017-10-25T01:53:16.051Z,17.13
2017-10-25T01:54:24.935Z,17.1
2017-10-25T01:55:33.818Z,17.09
2017-10-25T01:56:43.040Z,17.13
2017-10-25T01:57:51.585Z,17.13
2017-10-25T01:59:00.471Z,17.09
2017-10-25T02:00:09.355Z,17.09
2017-10-25T02:01:18.573Z,17.1
2017-10-25T02:02:28.125Z,17.12
2017-10-25T02:03:36.667Z,17.1
2017-10-25T02:04:45.885Z,17.17
2017-10-25T02:05:55.099Z,17.06
2017-10-25T02:07:03.975Z,17.07
2017-10-25T02:08:12.567Z,17.13
2017-10-25T02:09:21.783Z,17.13
2017-10-25T02:10:30.323Z,17.06
2017-10-25T02:11:38.868Z,17.13
2017-10-25T02:12:47.429Z,17.12
2017-10-25T02:13:55.960Z,17.12
2017-10-25T02:15:04.502Z,17.13
2017-10-25T02:16:13.380Z,17.09
2017-10-25T02:17:21.927Z,17.12
2017-10-25T02:18:30.472Z,17.1
2017-10-25T02:19:39.017Z,17.15
2017-10-25T02:20:47.564Z,17.07
2017-10-25T02:21:56.102Z,17.09
2017-10-25T02:23:04.982Z,17.09
2017-10-25T02:24:14.202Z,17.12
2017-10-25T02:25:23.090Z,17.13
2017-10-25T02:26:31.631Z,17.12
2017-10-25T02:27:40.514Z,17.13
2017-10-25T02:28:49.729Z,17.1
2017-10-25T02:29:58.273Z,17.15
2017-10-25T02:31:06.813Z,17.12
2017-10-25T02:32:15.358Z,17.1
2017-10-25T02:33:23.906Z,17.09
2017-10-25T02:34:32.789Z,17.09
2017-10-25T02:35:41.334Z,17.09
2017-10-25T02:36:50.225Z,17.2
2017-10-25T02:37:59.439Z,17.12
2017-10-25T02:39:07.986Z,17.15
2017-10-25T02:40:16.529Z,17.15
2017-10-25T02:41:25.745Z,17.1
2017-10-25T02:42:34.288Z,17.09
2017-10-25T02:43:43.506Z,17.12
2017-10-25T02:44:52.050Z,17.13
2017-10-25T02:46:00.930Z,17.1
2017-10-25T02:47:10.147Z,17.12
2017-10-25T02:48:18.691Z,17.09
2017-10-25T02:49:27.233Z,17.12
2017-10-25T02:50:35.775Z,17.12
2017-10-25T02:51:44.990Z,17.17
2017-10-25T02:52:54.205Z,17.18
2017-10-25T02:54:03.424Z,17.12
2017-10-25T02:55:12.644Z,17.17
2017-10-25T02:56:21.188Z,17.1
2017-10-25T02:57:29.731Z,17.1
2017-10-25T02:58:38.279Z,17.17
2017-10-25T02:59:47.162Z,17.15
2017-10-25T03:00:55.707Z,17.18
2017-10-25T03:02:04.254Z,17.15
2017-10-25T03:03:13.134Z,17.13
2017-10-25T03:04:22.350Z,17.18
2017-10-25T03:05:30.893Z,17.13
2017-10-25T03:06:39.437Z,17.12
2017-10-25T03:07:47.981Z,17.13
2017-10-25T03:08:57.192Z,17.15
2017-10-25T03:10:06.081Z,17.12
2017-10-25T03:11:15.633Z,17.2
2017-10-25T03:12:24.175Z,17.09
2017-10-25T03:13:33.391Z,17.17
2017-10-25T03:14:41.936Z,17.1
2017-10-25T03:15:50.817Z,17.18
2017-10-25T03:17:00.039Z,17.18
2017-10-25T03:18:10.339Z,17.07
2017-10-25T03:19:19.613Z,17.17
2017-10-25T03:20:28.497Z,17.17
2017-10-25T03:21:37.715Z,17.2
2017-10-25T03:22:46.256Z,17.1
2017-10-25T03:23:55.472Z,17.18
2017-10-25T03:25:04.016Z,17.17
2017-10-25T03:26:12.898Z,17.2
2017-10-25T03:27:22.112Z,17.25
2017-10-25T03:28:30.992Z,17.22
2017-10-25T03:29:39.540Z,17.17
2017-10-25T03:30:48.762Z,17.22
2017-10-25T03:31:57.649Z,17.27
2017-10-25T03:33:06.194Z,17.2
2017-10-25T03:34:14.740Z,17.22
2017-10-25T03:35:23.284Z,17.2
2017-10-25T03:36:31.826Z,17.2
2017-10-25T03:37:40.718Z,17.2
2017-10-25T03:38:49.266Z,17.22
2017-10-25T03:39:58.140Z,17.24
2017-10-25T03:41:06.684Z,17.18
2017-10-25T03:42:15.231Z,17.17
2017-10-25T03:43:23.777Z,17.17
2017-10-25T03:44:32.660Z,17.2
2017-10-25T03:45:41.543Z,17.17
2017-10-25T03:46:50.088Z,17.2
2017-10-25T03:47:58.971Z,17.2
2017-10-25T03:49:07.515Z,17.3
2017-10-25T03:50:16.736Z,17.27
2017-10-25T03:51:25.616Z,17.25
2017-10-25T03:52:34.860Z,17.12
2017-10-25T03:53:43.403Z,17.22
2017-10-25T03:54:52.286Z,17.12
2017-10-25T03:56:01.504Z,17.2
2017-10-25T03:57:10.047Z,17.18
2017-10-25T03:58:18.925Z,17.17
2017-10-25T03:59:27.804Z,17.13
2017-10-25T04:00:36.683Z,17.13
2017-10-25T04:01:45.227Z,17.22
2017-10-25T04:02:53.775Z,17.18
2017-10-25T04:04:02.985Z,17.13
2017-10-25T04:05:11.866Z,17.17
2017-10-25T04:06:20.748Z,17.17
2017-10-25T04:07:30.003Z,17.18
2017-10-25T04:08:38.551Z,17.18
2017-10-25T04:09:47.442Z,17.12
2017-10-25T04:10:56.665Z,17.06
2017-10-25T04:12:05.548Z,17.07
2017-10-25T04:13:14.766Z,16.99
2017-10-25T04:14:23.645Z,17.03
2017-10-25T04:15:32.862Z,17.13
2017-10-25T04:16:42.076Z,17.15
2017-10-25T04:17:51.291Z,17.03
2017-10-25T04:19:00.170Z,16.99
2017-10-25T04:20:08.716Z,16.95
2017-10-25T04:21:17.597Z,17
2017-10-25T04:22:26.478Z,17.02
2017-10-25T04:23:35.358Z,16.94
2017-10-25T04:24:44.242Z,16.97
2017-10-25T04:25:52.782Z,16.94
2017-10-25T04:27:01.663Z,16.99
2017-10-25T04:28:10.207Z,16.85
2017-10-25T04:29:18.746Z,16.87
2017-10-25T04:30:27.632Z,16.84
2017-10-25T04:31:36.515Z,16.88
2017-10-25T04:32:45.060Z,16.9
2017-10-25T04:33:53.604Z,16.88
2017-10-25T04:35:02.151Z,16.84
2017-10-25T04:36:11.040Z,16.82
2017-10-25T04:37:19.578Z,16.85
2017-10-25T04:38:28.510Z,16.92
2017-10-25T04:39:37.050Z,16.97
2017-10-25T04:40:45.592Z,16.95
2017-10-25T04:41:54.800Z,16.91
2017-10-25T04:43:03.680Z,16.91
2017-10-25T04:44:12.574Z,16.92
2017-10-25T04:45:21.116Z,17.02
2017-10-25T04:46:29.661Z,16.95
2017-10-25T04:47:38.876Z,16.95
2017-10-25T04:48:47.420Z,17.05
2017-10-25T04:49:56.296Z,16.88
2017-10-25T04:51:04.846Z,16.92
2017-10-25T04:52:14.065Z,16.94
2017-10-25T04:53:23.284Z,16.94
2017-10-25T04:54:32.162Z,17.06
2017-10-25T04:55:41.387Z,16.99
2017-10-25T04:56:49.931Z,16.99
2017-10-25T04:57:58.475Z,17.05
2017-10-25T04:59:07.018Z,17
2017-10-25T05:00:15.565Z,16.99
2017-10-25T05:01:24.455Z,17.02
2017-10-25T05:02:33.353Z,17.02
2017-10-25T05:03:42.581Z,16.87
2017-10-25T05:04:51.459Z,16.91
2017-10-25T05:06:00.006Z,16.99
2017-10-25T05:07:09.221Z,16.95
2017-10-25T05:08:17.763Z,16.82
2017-10-25T05:09:26.311Z,16.85
2017-10-25T05:10:34.856Z,16.76
2017-10-25T05:11:43.400Z,16.8
2017-10-25T05:12:52.295Z,16.85
2017-10-25T05:14:01.511Z,16.73
2017-10-25T05:15:10.390Z,16.8
2017-10-25T05:16:18.929Z,16.76
2017-10-25T05:17:28.145Z,16.65
2017-10-25T05:18:36.696Z,16.7
2017-10-25T05:19:45.568Z,16.66
2017-10-25T05:20:54.785Z,16.65
2017-10-25T05:22:04.002Z,16.66
2017-10-25T05:23:12.547Z,16.63
2017-10-25T05:24:21.096Z,16.59
2017-10-25T05:25:30.650Z,16.65
2017-10-25T05:26:39.567Z,16.62
2017-10-25T05:27:48.097Z,16.58
2017-10-25T05:28:56.642Z,16.51
2017-10-25T05:30:05.522Z,16.49
2017-10-25T05:31:14.742Z,16.52
2017-10-25T05:32:23.627Z,16.49
2017-10-25T05:33:32.171Z,16.47
2017-10-25T05:34:41.051Z,16.48
2017-10-25T05:35:49.608Z,16.52
2017-10-25T05:36:58.482Z,16.48
2017-10-25T05:38:07.025Z,16.49
2017-10-25T05:39:15.902Z,16.45
2017-10-25T05:40:24.449Z,16.4
2017-10-25T05:41:34.006Z,16.37
2017-10-25T05:42:42.550Z,16.37
2017-10-25T05:43:51.095Z,16.36
2017-10-25T05:45:00.313Z,16.25
2017-10-25T05:46:09.190Z,16.27
2017-10-25T05:47:17.732Z,16.27
2017-10-25T05:48:26.610Z,16.26
2017-10-25T05:49:35.492Z,16.26
2017-10-25T05:50:44.374Z,16.25
2017-10-25T05:51:53.590Z,16.22
2017-10-25T05:53:02.163Z,16.22
2017-10-25T05:54:11.378Z,16.14
2017-10-25T05:55:20.270Z,16.21
2017-10-25T05:56:30.253Z,16.21
2017-10-25T05:57:39.471Z,16.14
2017-10-25T05:58:48.403Z,16.18
2017-10-25T05:59:56.946Z,16.08
2017-10-25T06:01:05.489Z,16.07
2017-10-25T06:02:14.367Z,16.11
2017-10-25T06:03:23.585Z,16.07
2017-10-25T06:04:32.481Z,16.08
2017-10-25T06:05:41.345Z,16.06
2017-10-25T06:06:49.892Z,16.06
2017-10-25T06:07:59.107Z,16.1
2017-10-25T06:09:07.985Z,16.08
2017-10-25T06:10:16.527Z,16.1
2017-10-25T06:11:25.409Z,16.08
2017-10-25T06:12:34.289Z,16.06
2017-10-25T06:13:42.829Z,16.04
2017-10-25T06:14:51.371Z,16.07
2017-10-25T06:16:00.591Z,16.06
2017-10-25T06:17:09.468Z,16.06
2017-10-25T06:18:18.008Z,16.07
2017-10-25T06:19:26.562Z,16.17
2017-10-25T06:20:35.097Z,16.07
2017-10-25T06:21:43.650Z,16.1
2017-10-25T06:22:52.528Z,16.17
2017-10-25T06:24:01.752Z,16.11
2017-10-25T06:25:10.971Z,16.18
2017-10-25T06:26:19.851Z,16.18
2017-10-25T06:27:28.728Z,16.18
2017-10-25T06:28:37.607Z,16.16
2017-10-25T06:29:46.822Z,16.21
2017-10-25T06:30:56.043Z,16.27
2017-10-25T06:32:04.921Z,16.32
2017-10-25T06:33:13.805Z,16.29
2017-10-25T06:34:23.363Z,16.21
2017-10-25T06:35:32.246Z,16.37
2017-10-25T06:36:41.462Z,16.32
2017-10-25T06:37:50.344Z,16.3
2017-10-25T06:38:59.226Z,16.4
2017-10-25T06:40:08.781Z,16.45
2017-10-25T06:41:17.325Z,16.48
2017-10-25T06:42:26.200Z,16.44
2017-10-25T06:43:35.077Z,16.44
2017-10-25T06:44:43.953Z,16.44
2017-10-25T06:45:52.837Z,16.48
2017-10-25T06:47:01.721Z,16.42
2017-10-25T06:48:11.281Z,16.47
2017-10-25T06:49:20.167Z,16.45
2017-10-25T06:50:29.383Z,16.45
2017-10-25T06:51:38.262Z,16.49
2017-10-25T06:52:46.818Z,16.44
2017-10-25T06:53:55.354Z,16.42
2017-10-25T06:55:03.900Z,16.47
2017-10-25T06:56:12.535Z,16.49
2017-10-25T06:57:21.769Z,16.52
2017-10-25T06:58:30.641Z,16.44
2017-10-25T06:59:40.480Z,16.45
2017-10-25T07:00:49.149Z,16.54
2017-10-25T07:01:58.129Z,16.48
2017-10-25T07:03:07.010Z,16.48
2017-10-25T07:04:15.558Z,16.49
2017-10-25T07:05:24.435Z,16.42
2017-10-25T07:06:33.313Z,16.44
2017-10-25T07:07:41.946Z,16.42
2017-10-25T07:08:50.614Z,16.44
2017-10-25T07:09:59.155Z,16.48
2017-10-25T07:11:07.696Z,16.45
2017-10-25T07:12:16.575Z,16.45
2017-10-25T07:13:25.122Z,16.42
2017-10-25T07:14:33.664Z,16.51
2017-10-25T07:15:42.205Z,16.45
2017-10-25T07:16:50.751Z,16.47
2017-10-25T07:17:59.985Z,16.4
2017-10-25T07:19:08.668Z,16.4
2017-10-25T07:20:17.923Z,16.44
2017-10-25T07:21:27.086Z,16.42
2017-10-25T07:22:36.070Z,16.47
2017-10-25T07:23:47.342Z,16.52
2017-10-25T07:24:56.597Z,16.49
2017-10-25T07:26:05.940Z,16.49
2017-10-25T07:27:15.513Z,16.55
2017-10-25T07:28:24.536Z,16.65
2017-10-25T07:29:33.752Z,16.63
2017-10-25T07:30:42.632Z,16.65
2017-10-25T07:31:51.179Z,16.69
2017-10-25T07:33:00.400Z,16.67
2017-10-25T07:34:09.287Z,16.72
2017-10-25T07:35:17.825Z,16.76
2017-10-25T07:36:26.708Z,16.81
2017-10-25T07:37:35.587Z,16.8
2017-10-25T07:38:44.135Z,16.8
2017-10-25T07:39:53.013Z,16.77
2017-10-25T07:41:02.236Z,16.77
2017-10-25T07:42:11.463Z,16.8
2017-10-25T07:43:20.703Z,16.77
2017-10-25T07:44:29.580Z,16.84
2017-10-25T07:45:38.461Z,16.76
2017-10-25T07:46:48.762Z,16.77
2017-10-25T07:47:59.555Z,16.82
2017-10-25T07:49:08.441Z,16.85
2017-10-25T07:50:17.514Z,16.87
2017-10-25T07:51:26.055Z,17.02
2017-10-25T07:52:34.936Z,16.84
2017-10-25T07:53:44.162Z,16.99
2017-10-25T07:54:53.041Z,17.05
2017-10-25T07:56:02.221Z,16.95
2017-10-25T07:57:11.101Z,16.97
2017-10-25T07:58:19.990Z,17.06
2017-10-25T07:59:28.895Z,17.07
2017-10-25T08:00:38.110Z,17.09
2017-10-25T08:01:46.656Z,17.06
2017-10-25T08:02:55.540Z,17
2017-10-25T08:04:04.768Z,17.12
2017-10-25T08:05:13.648Z,17.15
2017-10-25T08:06:22.868Z,17.2
2017-10-25T08:07:31.752Z,17.15
2017-10-25T08:08:40.640Z,17.1
2017-10-25T08:09:49.864Z,17.18
2017-10-25T08:10:58.407Z,17.15
2017-10-25T08:12:06.952Z,17.15
2017-10-25T08:13:15.841Z,17.25
2017-10-25T08:14:24.380Z,17.24
2017-10-25T08:15:33.257Z,17.25
2017-10-25T08:16:42.478Z,17.24
2017-10-25T08:17:51.033Z,17.24
2017-10-25T08:19:00.122Z,17.24
2017-10-25T08:20:08.667Z,17.3
2017-10-25T08:21:17.365Z,17.3
2017-10-25T08:22:25.912Z,17.43
2017-10-25T08:23:34.793Z,17.36
2017-10-25T08:24:43.675Z,17.38
2017-10-25T08:25:53.271Z,17.42
2017-10-25T08:27:02.175Z,17.39
2017-10-25T08:28:12.070Z,17.42
2017-10-25T08:29:21.286Z,17.27
2017-10-25T08:30:30.194Z,17.32
2017-10-25T08:31:39.410Z,17.3
2017-10-25T08:32:47.955Z,17.27
2017-10-25T08:33:57.185Z,17.28
2017-10-25T08:35:06.449Z,17.22
2017-10-25T08:36:15.914Z,17.32
2017-10-25T08:37:24.618Z,17.32
2017-10-25T08:38:34.008Z,17.35
2017-10-25T08:39:42.866Z,17.32
2017-10-25T08:40:51.776Z,17.28
2017-10-25T08:42:00.647Z,17.25
2017-10-25T08:43:10.228Z,17.25
2017-10-25T08:44:19.110Z,17.3
2017-10-25T08:45:27.990Z,17.31
2017-10-25T08:46:36.879Z,17.28
2017-10-25T08:47:45.451Z,17.28
2017-10-25T08:48:54.080Z,17.3
2017-10-25T08:50:02.624Z,17.25
2017-10-25T08:51:11.846Z,17.4
2017-10-25T08:52:20.392Z,17.46
2017-10-25T08:53:29.616Z,17.47
2017-10-25T08:54:38.848Z,17.66
2017-10-25T08:55:47.728Z,17.66
2017-10-25T08:56:56.665Z,17.65
2017-10-25T08:58:05.554Z,17.74
2017-10-25T08:59:14.437Z,17.74
2017-10-25T09:00:23.314Z,17.71
2017-10-25T09:01:32.274Z,17.76
2017-10-25T09:02:41.168Z,17.73
2017-10-25T09:03:49.783Z,17.76
2017-10-25T09:04:58.787Z,17.74
2017-10-25T09:06:07.669Z,17.73
2017-10-25T09:07:16.893Z,17.83
2017-10-25T09:08:26.128Z,17.81
2017-10-25T09:09:35.136Z,17.86
2017-10-25T09:10:44.352Z,17.95
2017-10-25T09:11:53.256Z,17.92
2017-10-25T09:13:01.890Z,18.06
2017-10-25T09:14:11.112Z,17.98
2017-10-25T09:15:20.329Z,18.13
2017-10-25T09:16:29.208Z,18.16
2017-10-25T09:17:37.933Z,18.32
2017-10-25T09:18:46.487Z,18.39
2017-10-25T09:19:55.420Z,18.32
2017-10-25T09:21:04.985Z,18.35
2017-10-25T09:22:13.957Z,18.34
2017-10-25T09:23:23.185Z,18.34
2017-10-25T09:24:32.071Z,18.27
2017-10-25T09:25:40.967Z,18.17
2017-10-25T09:26:50.180Z,18.2
2017-10-25T09:27:58.726Z,18.2
2017-10-25T09:29:07.610Z,18.16
2017-10-25T09:30:17.890Z,18.14
2017-10-25T09:31:26.776Z,18.08
2017-10-25T09:32:35.324Z,18.02
2017-10-25T09:33:44.268Z,18.06
2017-10-25T09:34:53.482Z,17.94
2017-10-25T09:36:02.417Z,17.96
2017-10-25T09:37:11.730Z,17.87
2017-10-25T09:38:20.279Z,17.94
2017-10-25T09:39:28.914Z,17.88
2017-10-25T09:40:38.469Z,17.9
2017-10-25T09:41:47.059Z,17.86
2017-10-25T09:42:56.359Z,17.9
2017-10-25T09:44:06.056Z,17.87
2017-10-25T09:45:15.084Z,17.94
2017-10-25T09:46:24.008Z,17.88
2017-10-25T09:47:32.895Z,17.84
2017-10-25T09:48:41.442Z,17.9
2017-10-25T09:49:50.327Z,17.98
2017-10-25T09:50:58.879Z,17.96
2017-10-25T09:52:07.617Z,17.99
2017-10-25T09:53:16.168Z,17.99
2017-10-25T09:54:25.055Z,18.14
2017-10-25T09:55:33.674Z,18.08
2017-10-25T09:56:42.568Z,18.17
2017-10-25T09:57:51.507Z,18.14
2017-10-25T09:59:00.054Z,18.16
2017-10-25T10:00:08.604Z,18.03
2017-10-25T10:01:17.152Z,18.19
2017-10-25T10:02:26.377Z,18.11
2017-10-25T10:03:35.265Z,18.05
2017-10-25T10:04:44.153Z,18.16
2017-10-25T10:05:53.040Z,18.05
2017-10-25T10:07:01.586Z,18.02
2017-10-25T10:08:10.464Z,18.1
2017-10-25T10:09:19.348Z,18.16
2017-10-25T10:10:27.895Z,18.11
2017-10-25T10:11:37.163Z,18.08
2017-10-25T10:12:46.045Z,18.14
2017-10-25T10:13:54.595Z,18.17
2017-10-25T10:15:03.224Z,18.16
2017-10-25T10:16:11.987Z,18.17
2017-10-25T10:17:20.867Z,18.19
2017-10-25T10:18:29.469Z,18.17
2017-10-25T10:19:38.365Z,18.13
2017-10-25T10:20:47.233Z,18.13
2017-10-25T10:21:55.777Z,18.14
2017-10-25T10:23:04.668Z,18.16
2017-10-25T10:24:13.892Z,18.14
2017-10-25T10:25:22.791Z,18.13
2017-10-25T10:26:31.353Z,18.13
2017-10-25T10:27:40.592Z,18.14
2017-10-25T10:28:49.554Z,18.14
2017-10-25T10:29:58.102Z,18.13
2017-10-25T10:31:07.008Z,18.17
2017-10-25T10:32:15.565Z,18.14
2017-10-25T10:33:24.811Z,18.17
2017-10-25T10:34:33.731Z,18.11
2017-10-25T10:35:42.975Z,18.2
2017-10-25T10:36:51.534Z,18.11
2017-10-25T10:38:00.103Z,18.11
2017-10-25T10:39:09.378Z,18.24
2017-10-25T10:40:17.942Z,18.29
2017-10-25T10:41:26.879Z,18.39
2017-10-25T10:42:37.026Z,18.31
2017-10-25T10:43:48.310Z,18.35
2017-10-25T10:45:00.282Z,18.41
2017-10-25T10:46:12.513Z,18.29
2017-10-25T10:47:24.853Z,18.39
2017-10-25T10:48:35.862Z,18.39
2017-10-25T10:49:45.429Z,18.34
2017-10-25T10:50:56.690Z,18.26
2017-10-25T10:52:07.185Z,18.27
2017-10-25T10:53:16.788Z,18.27
2017-10-25T10:54:27.249Z,18.32
2017-10-25T10:55:35.797Z,18.24
2017-10-25T10:56:44.741Z,18.31
2017-10-25T10:57:53.285Z,18.26
2017-10-25T10:59:02.500Z,18.29
2017-10-25T11:00:11.046Z,18.21
2017-10-25T11:01:20.278Z,18.29
2017-10-25T11:02:29.511Z,18.19
2017-10-25T11:03:38.390Z,18.11
2017-10-25T11:04:46.936Z,18.11
2017-10-25T11:05:55.486Z,18.17
2017-10-25T11:07:05.303Z,18.06
2017-10-25T11:08:16.989Z,17.99
2017-10-25T11:09:28.304Z,17.99
2017-10-25T11:10:38.451Z,18.02
2017-10-25T11:11:47.345Z,18.01
2017-10-25T11:12:56.224Z,17.98
2017-10-25T11:14:05.099Z,18.02
2017-10-25T11:15:13.645Z,17.92
2017-10-25T11:16:22.192Z,17.95
2017-10-25T11:17:30.742Z,17.86
2017-10-25T11:18:39.628Z,17.9
2017-10-25T11:19:48.174Z,17.87
2017-10-25T11:20:58.775Z,17.88
2017-10-25T11:22:08.528Z,17.86
2017-10-25T11:23:17.573Z,17.86
2017-10-25T11:24:26.385Z,17.9
2017-10-25T11:25:35.610Z,17.8
2017-10-25T11:26:44.646Z,17.83
2017-10-25T11:27:53.538Z,17.83
2017-10-25T11:29:02.418Z,17.83
2017-10-25T11:30:10.973Z,17.83
2017-10-25T11:31:19.507Z,17.79
2017-10-25T11:32:28.390Z,17.76
2017-10-25T11:33:37.271Z,17.73
2017-10-25T11:34:46.156Z,17.76
2017-10-25T11:35:54.703Z,17.76
2017-10-25T11:37:03.579Z,17.8
2017-10-25T11:38:12.800Z,17.71
2017-10-25T11:39:21.348Z,17.76
2017-10-25T11:40:30.566Z,17.83
2017-10-25T11:41:39.788Z,17.9
2017-10-25T11:42:48.338Z,17.94
2017-10-25T11:43:57.219Z,17.87
2017-10-25T11:45:06.438Z,17.92
2017-10-25T11:46:15.318Z,18.08
2017-10-25T11:47:23.865Z,17.99
2017-10-25T11:48:32.751Z,18.03
2017-10-25T11:49:41.292Z,18.14
2017-10-25T11:50:50.173Z,18.14
2017-10-25T11:51:59.058Z,18.06
2017-10-25T11:53:08.278Z,18.1
2017-10-25T11:54:17.170Z,18.01
2017-10-25T11:55:26.049Z,18.02
2017-10-25T11:56:34.925Z,17.99
2017-10-25T11:57:44.138Z,17.98
2017-10-25T11:58:53.021Z,18.01
2017-10-25T12:00:01.567Z,18.1
2017-10-25T12:01:10.448Z,17.95
2017-10-25T12:02:19.666Z,17.96
2017-10-25T12:03:29.245Z,17.99
2017-10-25T12:04:37.802Z,17.98
2017-10-25T12:05:47.025Z,17.99
2017-10-25T12:06:55.582Z,17.95
2017-10-25T12:08:04.137Z,17.9
2017-10-25T12:09:12.695Z,17.86
2017-10-25T12:10:21.252Z,17.92
2017-10-25T12:11:30.480Z,17.95
2017-10-25T12:12:39.035Z,17.92
2017-10-25T12:13:47.940Z,17.87
2017-10-25T12:14:57.167Z,17.88
2017-10-25T12:16:05.709Z,17.9
2017-10-25T12:17:14.591Z,17.81
2017-10-25T12:18:23.473Z,17.84
2017-10-25T12:19:32.022Z,17.8
2017-10-25T12:20:40.559Z,17.79
2017-10-25T12:21:49.780Z,17.8
2017-10-25T12:22:58.674Z,17.84
2017-10-25T12:24:07.559Z,17.8
2017-10-25T12:25:17.126Z,17.71
2017-10-25T12:26:26.010Z,17.68
2017-10-25T12:27:34.556Z,17.66
2017-10-25T12:28:43.099Z,17.6
2017-10-25T12:29:51.641Z,17.57
2017-10-25T12:31:00.190Z,17.5
2017-10-25T12:32:09.406Z,17.43
2017-10-25T12:33:17.952Z,17.42
2017-10-25T12:34:26.831Z,17.42
2017-10-25T12:35:35.375Z,17.32
2017-10-25T12:36:44.594Z,17.36
2017-10-25T12:37:53.146Z,17.24
2017-10-25T12:39:02.372Z,17.24
2017-10-25T12:40:10.926Z,17.21
2017-10-25T12:41:19.827Z,17.18
2017-10-25T12:42:28.386Z,17.2
2017-10-25T12:43:37.285Z,17.25
2017-10-25T12:44:46.525Z,17.28
2017-10-25T12:45:55.088Z,17.28
2017-10-25T12:47:04.364Z,17.32
2017-10-25T12:48:13.268Z,17.3
2017-10-25T12:49:22.177Z,17.32
2017-10-25T12:50:32.773Z,17.27
2017-10-25T12:51:42.160Z,17.45
2017-10-25T12:52:52.836Z,17.43
2017-10-25T12:54:02.138Z,17.47
2017-10-25T12:55:11.034Z,17.45
2017-10-25T12:56:20.062Z,17.46
2017-10-25T12:57:28.993Z,17.49
2017-10-25T12:58:38.636Z,17.43
2017-10-25T12:59:48.924Z,17.47
2017-10-25T13:00:58.526Z,17.52
2017-10-25T13:02:08.624Z,17.49
2017-10-25T13:03:19.645Z,17.54
2017-10-25T13:04:30.717Z,17.54
2017-10-25T13:05:41.028Z,17.49
2017-10-25T13:06:50.309Z,17.47
2017-10-25T13:07:59.210Z,17.43
2017-10-25T13:09:08.090Z,17.54
2017-10-25T13:10:16.972Z,17.5
2017-10-25T13:11:26.203Z,17.49
2017-10-25T13:12:35.082Z,17.43
2017-10-25T13:13:43.966Z,17.58
2017-10-25T13:14:52.513Z,17.62
2017-10-25T13:16:01.110Z,17.6
2017-10-25T13:17:10.013Z,17.58
2017-10-25T13:18:18.732Z,17.46
2017-10-25T13:19:27.339Z,17.43
2017-10-25T13:20:36.763Z,17.54
2017-10-25T13:21:45.523Z,17.54
2017-10-25T13:22:54.752Z,17.38
2017-10-25T13:24:03.644Z,17.43
2017-10-25T13:25:13.053Z,17.38
2017-10-25T13:26:23.605Z,17.46
2017-10-25T13:27:32.828Z,17.46
2017-10-25T13:28:41.711Z,17.52
2017-10-25T13:29:50.932Z,17.38
2017-10-25T13:31:00.225Z,17.38
2017-10-25T13:32:08.769Z,17.46
2017-10-25T13:33:17.657Z,17.31
2017-10-25T13:34:27.208Z,17.3
2017-10-25T13:35:36.090Z,17.38
2017-10-25T13:36:44.630Z,17.39
2017-10-25T13:37:53.512Z,17.39
2017-10-25T13:39:02.726Z,17.39
2017-10-25T13:40:11.608Z,17.39
2017-10-25T13:41:20.829Z,17.42
2017-10-25T13:42:30.046Z,17.32
2017-10-25T13:43:38.950Z,17.4
2017-10-25T13:44:47.830Z,17.32
2017-10-25T13:45:57.058Z,17.36
2017-10-25T13:47:05.950Z,17.27
2017-10-25T13:48:14.526Z,17.27
2017-10-25T13:49:23.418Z,17.27
2017-10-25T13:50:32.709Z,17.32
2017-10-25T13:51:41.606Z,17.36
2017-10-25T13:52:50.487Z,17.3
2017-10-25T13:53:59.701Z,17.38
2017-10-25T13:55:08.586Z,17.39
2017-10-25T13:56:17.466Z,17.39
2017-10-25T13:57:26.013Z,17.42
2017-10-25T13:58:34.558Z,17.36
2017-10-25T13:59:43.106Z,17.47
2017-10-25T14:00:52.910Z,17.47
2017-10-25T14:02:01.914Z,17.45
2017-10-25T14:03:10.802Z,17.45
2017-10-25T14:04:20.137Z,17.49
2017-10-25T14:05:28.686Z,17.4
2017-10-25T14:06:37.918Z,17.46
2017-10-25T14:07:46.811Z,17.46
2017-10-25T14:08:56.041Z,17.47
2017-10-25T14:10:04.587Z,17.46
2017-10-25T14:11:13.482Z,17.43
2017-10-25T14:12:22.368Z,17.38
2017-10-25T14:13:31.955Z,17.45
2017-10-25T14:14:40.808Z,17.45
2017-10-25T14:15:49.677Z,17.45
2017-10-25T14:16:58.222Z,17.36
2017-10-25T14:18:07.105Z,17.25
2017-10-25T14:19:16.324Z,17.32
2017-10-25T14:20:25.534Z,17.32
2017-10-25T14:21:34.079Z,17.24
2017-10-25T14:22:43.304Z,17.22
2017-10-25T14:23:51.847Z,17.18
2017-10-25T14:25:00.393Z,17.13
2017-10-25T14:26:08.939Z,17.09
2017-10-25T14:27:18.158Z,17.06
2017-10-25T14:28:27.040Z,17.07
2017-10-25T14:29:35.589Z,17.09
2017-10-25T14:30:44.466Z,17.05
2017-10-25T14:31:53.347Z,17.03
2017-10-25T14:33:02.576Z,17.03
2017-10-25T14:34:11.117Z,17.09
2017-10-25T14:35:19.997Z,17.07
2017-10-25T14:36:28.541Z,17.09
2017-10-25T14:37:37.766Z,17.09
2017-10-25T14:38:46.703Z,17.03
2017-10-25T14:39:55.253Z,17.17
2017-10-25T14:41:04.477Z,17.15
2017-10-25T14:42:13.694Z,17.03
2017-10-25T14:43:22.577Z,17.17
2017-10-25T14:44:31.120Z,17.03
2017-10-25T14:45:39.674Z,17
2017-10-25T14:46:48.570Z,17.06
2017-10-25T14:47:57.115Z,17.15
2017-10-25T14:49:05.711Z,16.99
2017-10-25T14:50:14.589Z,17.06
2017-10-25T14:51:23.133Z,16.99
2017-10-25T14:52:31.683Z,17.07